createdAt,value
2019-02-14T00:01:48.482Z,73.14
2019-02-14T00:04:20.795Z,72.32
2019-02-14T00:06:53.241Z,72.70
2019-02-14T00:09:25.462Z,73.07
2019-02-14T00:11:58.194Z,72.61
2019-02-14T00:14:30.634Z,72.62
2019-02-14T00:17:02.646Z,73.04
2019-02-14T00:19:34.916Z,73.13
2019-02-14T00:22:07.203Z,73.28
2019-02-14T00:24:39.384Z,73.29
2019-02-14T00:27:11.691Z,73.36
2019-02-14T00:32:14.093Z,73.56
2019-02-14T00:34:46.431Z,73.50
2019-02-14T00:37:18.837Z,73.53
2019-02-14T00:39:51.360Z,73.57
2019-02-14T00:42:24.714Z,73.68
2019-02-14T00:44:56.892Z,73.72
2019-02-14T00:47:29.223Z,73.80
2019-02-14T00:50:01.596Z,73.60
2019-02-14T00:52:33.672Z,73.76
2019-02-14T00:55:06.051Z,73.71
2019-02-14T00:57:38.197Z,73.73
2019-02-14T01:00:11.229Z,73.71
2019-02-14T01:02:43.343Z,73.67
2019-02-14T01:05:16.526Z,73.54
2019-02-14T01:07:48.909Z,73.48
2019-02-14T01:10:21.230Z,73.71
2019-02-14T01:12:55.678Z,73.16
2019-02-14T01:15:29.409Z,73.60
2019-02-14T01:18:01.547Z,73.56
2019-02-14T01:20:33.741Z,73.10
2019-02-14T01:23:06.847Z,73.34
2019-02-14T01:25:39.102Z,73.48
2019-02-14T01:28:11.444Z,73.40
2019-02-14T01:30:43.783Z,73.42
2019-02-14T01:33:17.257Z,73.46
2019-02-14T01:35:49.617Z,73.45
2019-02-14T01:38:21.872Z,73.28
2019-02-14T01:40:54.039Z,73.28
2019-02-14T01:43:26.468Z,73.65
2019-02-14T01:45:58.539Z,73.32
2019-02-14T01:48:31.988Z,73.48
2019-02-14T01:51:04.092Z,73.37
2019-02-14T01:53:36.440Z,73.35
2019-02-14T01:56:08.729Z,73.31
2019-02-14T01:58:40.995Z,73.28
2019-02-14T02:01:13.494Z,73.29
2019-02-14T02:03:46.027Z,73.26
2019-02-14T02:06:18.143Z,73.27
2019-02-14T02:08:50.491Z,73.28
2019-02-14T02:11:22.614Z,73.28
2019-02-14T02:13:54.864Z,73.12
2019-02-14T02:16:27.049Z,73.04
2019-02-14T02:19:01.286Z,72.53
2019-02-14T02:21:33.438Z,72.75
2019-02-14T02:24:05.828Z,72.49
2019-02-14T02:26:38.104Z,72.64
2019-02-14T02:29:10.311Z,72.48
2019-02-14T02:31:42.604Z,72.59
2019-02-14T02:34:14.870Z,72.56
2019-02-14T02:36:47.034Z,72.48
2019-02-14T02:39:19.333Z,72.64
2019-02-14T02:41:51.464Z,72.52
2019-02-14T02:44:23.844Z,72.71
2019-02-14T02:46:56.044Z,73.31
2019-02-14T02:49:29.446Z,72.83
2019-02-14T02:52:01.849Z,72.94
2019-02-14T02:54:34.092Z,72.89
2019-02-14T02:57:06.230Z,73.01
2019-02-14T02:59:38.499Z,72.79
2019-02-14T03:02:10.693Z,72.65
2019-02-14T03:04:42.830Z,72.61
2019-02-14T03:07:14.972Z,72.48
2019-02-14T03:09:47.187Z,72.74
2019-02-14T03:12:19.556Z,72.48
2019-02-14T03:14:51.722Z,72.28
2019-02-14T03:17:23.959Z,71.84
2019-02-14T03:19:56.144Z,71.80
2019-02-14T03:22:28.314Z,71.83
2019-02-14T03:25:00.839Z,71.41
2019-02-14T03:27:33.141Z,71.41
2019-02-14T03:30:06.006Z,71.32
2019-02-14T03:32:38.207Z,71.61
2019-02-14T03:35:10.364Z,71.63
2019-02-14T03:37:44.214Z,71.49
2019-02-14T03:40:16.664Z,71.77
2019-02-14T03:42:48.916Z,71.59
2019-02-14T03:45:21.051Z,71.76
2019-02-14T03:47:53.233Z,71.75
2019-02-14T03:50:25.403Z,71.64
2019-02-14T03:52:57.665Z,71.43
2019-02-14T03:55:29.878Z,71.37
2019-02-14T03:58:02.106Z,71.50
2019-02-14T04:00:34.138Z,71.65
2019-02-14T04:03:06.347Z,71.80
2019-02-14T04:05:38.452Z,71.97
2019-02-14T04:08:10.548Z,71.99
2019-02-14T04:10:42.608Z,72.05
2019-02-14T04:13:14.904Z,72.06
2019-02-14T04:15:46.950Z,72.10
2019-02-14T04:18:19.227Z,72.09
2019-02-14T04:20:51.283Z,72.11
2019-02-14T04:23:25.429Z,72.11
2019-02-14T04:25:57.626Z,72.13
2019-02-14T04:28:29.835Z,72.13
2019-02-14T04:31:02.170Z,72.14
2019-02-14T04:33:34.366Z,72.15
2019-02-14T04:36:06.625Z,72.16
2019-02-14T04:38:38.801Z,72.16
2019-02-14T04:41:11.068Z,72.15
2019-02-14T04:43:43.287Z,72.15
2019-02-14T04:46:15.417Z,72.16
2019-02-14T04:48:47.568Z,72.15
2019-02-14T04:51:19.773Z,72.16
2019-02-14T04:53:51.926Z,72.17
2019-02-14T04:56:24.073Z,72.17
2019-02-14T04:58:56.251Z,72.18
2019-02-14T05:01:28.379Z,72.18
2019-02-14T05:04:00.403Z,72.16
2019-02-14T05:06:32.538Z,72.17
2019-02-14T05:09:05.857Z,72.11
2019-02-14T05:11:38.006Z,72.12
2019-02-14T05:14:10.189Z,72.13
2019-02-14T05:16:42.565Z,72.16
2019-02-14T05:19:14.699Z,72.16
2019-02-14T05:21:46.891Z,72.19
2019-02-14T05:24:19.303Z,72.18
2019-02-14T05:26:51.507Z,72.14
2019-02-14T05:29:23.786Z,72.15
2019-02-14T05:31:55.789Z,72.17
2019-02-14T05:34:28.298Z,72.20
2019-02-14T05:37:00.395Z,72.15
2019-02-14T05:39:32.664Z,72.18
2019-02-14T05:42:08.113Z,72.14
2019-02-14T05:44:40.301Z,72.08
2019-02-14T05:47:12.489Z,72.09
2019-02-14T05:49:44.529Z,72.14
2019-02-14T05:52:17.702Z,72.15
2019-02-14T05:54:49.852Z,72.16
2019-02-14T05:57:22.078Z,72.15
2019-02-14T05:59:54.280Z,72.15
2019-02-14T06:02:26.293Z,72.19
2019-02-14T06:04:58.393Z,72.16
2019-02-14T06:07:30.575Z,72.14
2019-02-14T06:10:02.739Z,72.08
2019-02-14T06:12:34.899Z,72.13
2019-02-14T06:15:07.198Z,72.09
2019-02-14T06:17:39.384Z,72.10
2019-02-14T06:20:11.836Z,72.12
2019-02-14T06:22:43.989Z,72.03
2019-02-14T06:25:16.187Z,72.04
2019-02-14T06:27:48.544Z,72.03
2019-02-14T06:30:20.611Z,72.02
2019-02-14T06:32:52.743Z,71.97
2019-02-14T06:35:25.040Z,72.00
2019-02-14T06:37:57.123Z,71.96
2019-02-14T06:40:29.375Z,72.00
2019-02-14T06:43:01.477Z,71.99
2019-02-14T06:45:33.678Z,71.92
2019-02-14T06:48:05.766Z,71.87
2019-02-14T06:50:38.215Z,71.80
2019-02-14T06:53:10.258Z,71.79
2019-02-14T06:55:42.537Z,71.83
2019-02-14T06:58:14.729Z,71.82
2019-02-14T07:00:46.897Z,71.76
2019-02-14T07:03:19.194Z,71.76
2019-02-14T07:05:51.601Z,71.75
2019-02-14T07:08:23.817Z,71.72
2019-02-14T07:10:57.693Z,71.74
2019-02-14T07:13:29.935Z,71.74
2019-02-14T07:16:02.580Z,71.73
2019-02-14T07:18:34.743Z,71.67
2019-02-14T07:21:07.113Z,71.69
2019-02-14T07:23:39.187Z,71.62
2019-02-14T07:26:11.564Z,71.59
2019-02-14T07:28:43.694Z,71.58
2019-02-14T07:31:16.212Z,71.58
2019-02-14T07:33:48.381Z,71.57
2019-02-14T07:36:20.670Z,71.56
2019-02-14T07:38:53.548Z,71.54
2019-02-14T07:41:25.694Z,71.54
2019-02-14T07:43:57.881Z,71.49
2019-02-14T07:46:30.024Z,71.44
2019-02-14T07:49:02.245Z,71.41
2019-02-14T07:51:34.550Z,71.36
2019-02-14T07:54:07.759Z,71.33
2019-02-14T07:56:40.446Z,71.28
2019-02-14T07:59:12.857Z,71.28
2019-02-14T08:01:45.048Z,71.27
2019-02-14T08:04:17.161Z,71.24
2019-02-14T08:06:49.564Z,71.27
2019-02-14T08:09:21.645Z,71.19
2019-02-14T08:11:55.047Z,71.21
2019-02-14T08:14:27.188Z,71.22
2019-02-14T08:16:59.672Z,71.19
2019-02-14T08:19:32.057Z,71.23
2019-02-14T08:22:04.419Z,71.19
2019-02-14T08:24:36.798Z,71.17
2019-02-14T08:27:09.007Z,71.17
2019-02-14T08:29:41.129Z,71.18
2019-02-14T08:32:13.279Z,71.15
2019-02-14T08:34:45.456Z,71.19
2019-02-14T08:37:17.627Z,71.20
2019-02-14T08:39:49.792Z,71.23
2019-02-14T08:42:22.257Z,71.23
2019-02-14T08:44:54.459Z,71.23
2019-02-14T08:47:26.857Z,71.23
2019-02-14T08:49:59.059Z,71.25
2019-02-14T08:52:31.380Z,71.25
2019-02-14T08:55:03.639Z,71.29
2019-02-14T08:57:36.032Z,71.24
2019-02-14T09:00:08.651Z,71.26
2019-02-14T09:02:41.695Z,71.28
2019-02-14T09:05:13.824Z,71.25
2019-02-14T09:07:54.148Z,71.24
2019-02-14T09:10:20.153Z,71.18
2019-02-14T09:12:52.616Z,71.18
2019-02-14T09:15:25.828Z,71.11
2019-02-14T09:17:58.069Z,71.13
2019-02-14T09:20:30.288Z,71.13
2019-02-14T09:23:03.039Z,71.13
2019-02-14T09:25:35.759Z,71.09
2019-02-14T09:28:08.241Z,71.10
2019-02-14T09:30:40.574Z,71.08
2019-02-14T09:33:13.020Z,71.12
2019-02-14T09:35:45.270Z,71.12
2019-02-14T09:38:17.900Z,71.14
2019-02-14T09:40:51.191Z,71.19
2019-02-14T09:43:29.659Z,71.20
2019-02-14T09:45:58.602Z,71.21
2019-02-14T09:48:32.316Z,71.21
2019-02-14T09:51:05.155Z,71.21
2019-02-14T09:53:37.666Z,71.21
2019-02-14T09:56:10.024Z,71.23
2019-02-14T09:58:43.812Z,71.21
2019-02-14T10:01:15.882Z,71.21
2019-02-14T10:03:48.535Z,71.20
2019-02-14T10:06:21.003Z,71.24
2019-02-14T10:08:54.984Z,71.28
2019-02-14T10:11:27.300Z,71.31
2019-02-14T10:13:59.639Z,71.29
2019-02-14T10:16:31.999Z,71.35
2019-02-14T10:19:05.960Z,71.30
2019-02-14T10:21:39.194Z,71.29
2019-02-14T10:24:11.627Z,71.31
2019-02-14T10:26:44.078Z,71.28
2019-02-14T10:29:16.293Z,71.28
2019-02-14T10:31:48.535Z,71.29
2019-02-14T10:34:20.733Z,71.31
2019-02-14T10:36:53.009Z,71.33
2019-02-14T10:39:26.095Z,71.27
2019-02-14T10:41:58.287Z,71.24
2019-02-14T10:44:30.547Z,71.19
2019-02-14T10:47:02.542Z,71.18
2019-02-14T10:49:34.693Z,71.22
2019-02-14T10:52:08.583Z,71.15
2019-02-14T10:54:40.831Z,71.17
2019-02-14T10:57:12.927Z,71.21
2019-02-14T10:59:45.083Z,71.21
2019-02-14T11:02:17.263Z,71.17
2019-02-14T11:04:49.519Z,71.17
2019-02-14T11:07:21.531Z,71.13
2019-02-14T11:09:54.576Z,71.16
2019-02-14T11:12:26.738Z,71.14
2019-02-14T11:14:59.019Z,71.05
2019-02-14T11:17:31.049Z,71.08
2019-02-14T11:20:03.357Z,71.07
2019-02-14T11:22:35.585Z,71.05
2019-02-14T11:25:08.342Z,71.10
2019-02-14T11:27:40.598Z,71.00
2019-02-14T11:30:13.290Z,71.04
2019-02-14T11:32:45.519Z,71.05
2019-02-14T11:35:17.696Z,71.01
2019-02-14T11:37:49.890Z,71.04
2019-02-14T11:40:22.029Z,71.04
2019-02-14T11:42:54.374Z,71.01
2019-02-14T11:45:26.673Z,70.96
2019-02-14T11:47:59.129Z,70.99
2019-02-14T11:50:31.455Z,71.00
2019-02-14T11:53:03.919Z,70.98
2019-02-14T11:55:36.042Z,70.93
2019-02-14T11:58:08.310Z,71.00
2019-02-14T12:00:40.655Z,70.91
2019-02-14T12:03:12.689Z,70.76
2019-02-14T12:05:44.997Z,70.53
2019-02-14T12:08:17.050Z,70.52
2019-02-14T12:10:49.467Z,70.49
2019-02-14T12:13:21.813Z,70.44
2019-02-14T12:15:55.108Z,70.37
2019-02-14T12:18:27.185Z,70.33
2019-02-14T12:20:59.322Z,70.21
2019-02-14T12:23:31.505Z,70.21
2019-02-14T12:26:07.018Z,69.94
2019-02-14T12:28:39.160Z,69.76
2019-02-14T12:31:11.271Z,69.70
2019-02-14T12:33:43.435Z,69.73
2019-02-14T12:36:15.565Z,69.66
2019-02-14T12:38:47.979Z,69.57
2019-02-14T12:41:20.269Z,69.26
2019-02-14T12:43:52.662Z,69.18
2019-02-14T12:46:24.850Z,69.13
2019-02-14T12:48:57.174Z,69.34
2019-02-14T12:51:29.316Z,69.06
2019-02-14T12:54:01.501Z,68.74
2019-02-14T12:56:33.693Z,68.83
2019-02-14T12:59:05.952Z,68.92
2019-02-14T13:01:38.138Z,68.96
2019-02-14T13:04:10.816Z,68.90
2019-02-14T13:06:42.947Z,68.99
2019-02-14T13:09:20.088Z,68.91
2019-02-14T13:11:48.814Z,68.88
2019-02-14T13:14:20.994Z,68.61
2019-02-14T13:16:53.244Z,68.61
2019-02-14T13:19:25.369Z,68.74
2019-02-14T13:21:57.506Z,68.99
2019-02-14T13:24:29.667Z,68.55
2019-02-14T13:27:01.848Z,68.85
2019-02-14T13:29:34.066Z,68.89
2019-02-14T13:32:06.125Z,68.83
2019-02-14T13:34:38.483Z,68.79
2019-02-14T13:37:10.696Z,68.79
2019-02-14T13:39:42.887Z,68.06
2019-02-14T13:42:15.112Z,68.10
2019-02-14T13:44:47.246Z,68.36
2019-02-14T13:47:19.425Z,68.36
2019-02-14T13:49:51.562Z,68.42
2019-02-14T13:52:24.017Z,68.08
2019-02-14T13:54:56.370Z,68.51
2019-02-14T13:57:28.774Z,68.64
2019-02-14T14:00:01.813Z,68.40
2019-02-14T14:02:35.048Z,68.64
2019-02-14T14:05:07.114Z,68.27
2019-02-14T14:07:40.663Z,68.51
2019-02-14T14:10:13.039Z,68.83
2019-02-14T14:12:45.204Z,68.73
2019-02-14T14:15:17.311Z,69.21
2019-02-14T14:17:49.440Z,68.58
2019-02-14T14:20:21.674Z,69.04
2019-02-14T14:22:54.058Z,68.95
2019-02-14T14:25:26.089Z,69.10
2019-02-14T14:27:58.310Z,69.09
2019-02-14T14:30:30.493Z,68.95
2019-02-14T14:33:02.811Z,68.65
2019-02-14T14:35:35.197Z,68.69
2019-02-14T14:38:07.569Z,68.75
2019-02-14T14:40:39.919Z,69.13
2019-02-14T14:43:33.770Z,68.73
2019-02-14T14:46:25.199Z,69.23
2019-02-14T14:48:57.436Z,68.74
2019-02-14T14:51:29.698Z,68.92
2019-02-14T14:54:02.296Z,69.45
2019-02-14T14:56:34.696Z,69.23
2019-02-14T14:59:07.064Z,69.21
2019-02-14T15:01:39.446Z,69.12
2019-02-14T15:04:11.555Z,68.92
2019-02-14T15:06:43.706Z,69.10
2019-02-14T15:09:15.987Z,68.82
2019-02-14T15:11:48.365Z,68.81
2019-02-14T15:14:20.625Z,68.66
2019-02-14T15:16:52.812Z,69.20
2019-02-14T15:19:25.032Z,69.53
2019-02-14T15:21:57.235Z,69.57
2019-02-14T15:24:29.435Z,69.78
2019-02-14T15:27:01.705Z,69.76
2019-02-14T15:29:33.816Z,69.51
2019-02-14T15:32:06.274Z,69.79
2019-02-14T15:34:38.489Z,69.84
2019-02-14T15:37:12.633Z,70.07
2019-02-14T15:39:44.869Z,69.91
2019-02-14T15:42:17.160Z,69.80
2019-02-14T15:44:49.582Z,70.03
2019-02-14T15:47:21.869Z,70.29
2019-02-14T15:49:54.046Z,70.10
2019-02-14T15:52:27.545Z,70.22
2019-02-14T15:55:00.260Z,69.82
2019-02-14T15:57:32.394Z,69.97
2019-02-14T16:00:07.067Z,69.85
2019-02-14T16:02:38.694Z,69.92
2019-02-14T16:05:10.899Z,69.84
2019-02-14T16:07:43.056Z,70.14
2019-02-14T16:10:18.664Z,70.24
2019-02-14T16:12:49.130Z,70.14
2019-02-14T16:15:22.353Z,70.18
2019-02-14T16:17:56.892Z,70.00
2019-02-14T16:20:29.335Z,70.03
2019-02-14T16:23:04.151Z,70.14
2019-02-14T16:25:36.504Z,70.22
2019-02-14T16:28:09.885Z,70.08
2019-02-14T16:30:42.739Z,70.04
2019-02-14T16:33:14.878Z,70.14
2019-02-14T16:35:47.267Z,70.43
2019-02-14T16:38:19.390Z,70.24
2019-02-14T16:40:51.579Z,70.29
2019-02-14T16:43:23.810Z,70.26
2019-02-14T16:45:55.920Z,70.37
2019-02-14T16:48:28.089Z,70.19
2019-02-14T16:51:00.391Z,70.20
2019-02-14T16:53:32.825Z,70.11
2019-02-14T16:56:05.219Z,70.28
2019-02-14T16:58:37.790Z,70.20
2019-02-14T17:01:10.110Z,70.17
2019-02-14T17:03:42.430Z,70.17
2019-02-14T17:06:14.614Z,70.31
2019-02-14T17:08:46.766Z,70.19
2019-02-14T17:11:19.298Z,70.14
2019-02-14T17:13:51.499Z,70.29
2019-02-14T17:16:23.690Z,70.35
2019-02-14T17:18:55.834Z,70.39
2019-02-14T17:21:27.996Z,70.20
2019-02-14T17:24:00.245Z,70.16
2019-02-14T17:26:32.523Z,70.04
2019-02-14T17:29:04.800Z,70.21
2019-02-14T17:31:37.203Z,70.25
2019-02-14T17:34:09.507Z,70.36
2019-02-14T17:36:42.144Z,70.38
2019-02-14T17:39:14.612Z,70.29
2019-02-14T17:41:46.771Z,70.31
2019-02-14T17:44:19.095Z,70.33
2019-02-14T17:46:51.221Z,70.53
2019-02-14T17:49:23.336Z,70.38
2019-02-14T17:51:55.733Z,70.38
2019-02-14T17:54:28.012Z,70.43
2019-02-14T17:57:00.359Z,70.50
2019-02-14T17:59:32.408Z,70.68
2019-02-14T18:02:05.023Z,70.64
2019-02-14T18:04:37.215Z,70.63
2019-02-14T18:07:09.610Z,70.63
2019-02-14T18:09:42.182Z,70.73
2019-02-14T18:12:14.485Z,70.67
2019-02-14T18:14:46.594Z,70.53
2019-02-14T18:17:19.013Z,70.65
2019-02-14T18:19:51.308Z,70.72
2019-02-14T18:22:23.525Z,70.47
2019-02-14T18:24:56.876Z,70.51
2019-02-14T18:27:29.081Z,70.49
2019-02-14T18:30:01.489Z,70.62
2019-02-14T18:32:33.818Z,70.56
2019-02-14T18:35:06.036Z,70.65
2019-02-14T18:37:38.542Z,70.50
2019-02-14T18:40:11.407Z,70.59
2019-02-14T18:42:43.938Z,70.83
2019-02-14T18:45:16.118Z,70.66
2019-02-14T18:47:48.471Z,70.85
2019-02-14T18:50:20.718Z,70.91
2019-02-14T18:52:54.001Z,70.87
2019-02-14T18:55:26.161Z,70.78
2019-02-14T18:57:58.391Z,70.81
2019-02-14T19:00:30.601Z,70.64
2019-02-14T19:03:02.789Z,70.75
2019-02-14T19:05:34.952Z,70.85
2019-02-14T19:08:07.140Z,70.71
2019-02-14T19:10:39.415Z,70.77
2019-02-14T19:13:12.782Z,70.85
2019-02-14T19:15:45.107Z,70.84
2019-02-14T19:18:17.356Z,70.91
2019-02-14T19:20:49.563Z,70.78
2019-02-14T19:23:24.299Z,70.82
2019-02-14T19:25:56.616Z,70.88
2019-02-14T19:28:28.830Z,70.97
2019-02-14T19:31:00.892Z,70.92
2019-02-14T19:33:33.169Z,70.94
2019-02-14T19:36:05.217Z,70.98
2019-02-14T19:38:37.534Z,70.96
2019-02-14T19:41:09.766Z,70.92
2019-02-14T19:43:42.030Z,70.93
2019-02-14T19:46:14.093Z,70.83
2019-02-14T19:48:46.369Z,70.89
2019-02-14T19:51:18.563Z,70.95
2019-02-14T19:53:50.680Z,70.97
2019-02-14T19:56:22.944Z,70.92
2019-02-14T19:58:55.246Z,70.81
2019-02-14T20:01:27.439Z,70.89
2019-02-14T20:04:00.469Z,70.89
2019-02-14T20:06:32.895Z,70.73
2019-02-14T20:09:05.614Z,70.84
2019-02-14T20:11:38.941Z,70.87
2019-02-14T20:14:10.956Z,70.83
2019-02-14T20:16:43.330Z,70.86
2019-02-14T20:19:15.492Z,70.78
2019-02-14T20:21:47.887Z,70.73
2019-02-14T20:24:20.090Z,70.75
2019-02-14T20:26:52.398Z,70.74
2019-02-14T20:29:24.409Z,70.76
2019-02-14T20:31:56.752Z,70.80
2019-02-14T20:34:29.070Z,70.73
2019-02-14T20:37:01.437Z,70.55
2019-02-14T20:39:33.599Z,70.62
2019-02-14T20:42:05.818Z,70.66
2019-02-14T20:44:38.287Z,70.51
2019-02-14T20:47:10.394Z,70.71
2019-02-14T20:49:42.733Z,70.64
2019-02-14T20:52:15.965Z,70.68
2019-02-14T20:54:48.218Z,70.54
2019-02-14T20:57:20.382Z,70.29
2019-02-14T20:59:52.549Z,70.42
2019-02-14T21:02:24.727Z,70.41
2019-02-14T21:04:56.879Z,70.51
2019-02-14T21:07:29.064Z,70.36
2019-02-14T21:10:01.280Z,70.37
2019-02-14T21:12:33.567Z,70.49
2019-02-14T21:15:05.685Z,70.33
2019-02-14T21:17:38.854Z,70.37
2019-02-14T21:20:10.996Z,70.41
2019-02-14T21:22:43.121Z,70.53
2019-02-14T21:25:15.760Z,70.38
2019-02-14T21:27:48.029Z,70.11
2019-02-14T21:30:20.365Z,70.17
2019-02-14T21:32:53.815Z,70.23
2019-02-14T21:35:25.874Z,70.08
2019-02-14T21:37:58.099Z,70.31
2019-02-14T21:40:30.336Z,70.24
2019-02-14T21:43:02.719Z,70.06
2019-02-14T21:45:34.837Z,70.23
2019-02-14T21:48:07.295Z,70.12
2019-02-14T21:50:39.491Z,70.13
2019-02-14T21:53:11.754Z,70.12
2019-02-14T21:55:43.818Z,70.09
2019-02-14T21:58:15.985Z,69.99
2019-02-14T22:00:48.348Z,70.03
2019-02-14T22:03:20.744Z,70.01
2019-02-14T22:05:53.028Z,69.87
2019-02-14T22:08:25.277Z,69.59
2019-02-14T22:10:57.547Z,69.79
2019-02-14T22:13:29.570Z,69.45
2019-02-14T22:16:02.252Z,69.53
2019-02-14T22:18:34.331Z,69.73
2019-02-14T22:21:06.610Z,69.82
2019-02-14T22:23:38.699Z,69.76
2019-02-14T22:26:10.912Z,69.95
2019-02-14T22:28:43.101Z,69.65
2019-02-14T22:31:15.258Z,69.30
2019-02-14T22:33:47.345Z,69.70
2019-02-14T22:36:19.623Z,69.67
2019-02-14T22:38:51.827Z,69.74
2019-02-14T22:41:23.924Z,69.49
2019-02-14T22:43:55.977Z,69.38
2019-02-14T22:46:29.804Z,69.54
2019-02-14T22:49:01.972Z,69.78
2019-02-14T22:51:34.118Z,69.69
2019-02-14T22:54:06.269Z,69.24
2019-02-14T22:56:38.488Z,69.34
2019-02-14T22:59:10.735Z,69.52
2019-02-14T23:01:43.005Z,69.63
2019-02-14T23:04:15.282Z,69.54
2019-02-14T23:06:47.300Z,69.64
2019-02-14T23:09:19.799Z,69.54
2019-02-14T23:11:51.989Z,69.51
2019-02-14T23:14:24.173Z,69.61
2019-02-14T23:16:56.613Z,69.38
2019-02-14T23:19:28.727Z,69.55
2019-02-14T23:22:00.894Z,69.55
2019-02-14T23:24:33.442Z,69.46
2019-02-14T23:27:05.621Z,69.47
2019-02-14T23:29:39.821Z,69.70
2019-02-14T23:32:11.979Z,69.69
2019-02-14T23:34:44.156Z,69.57
2019-02-14T23:37:16.306Z,69.71
2019-02-14T23:39:48.579Z,69.32
2019-02-14T23:42:21.853Z,69.34
2019-02-14T23:44:54.045Z,69.71
2019-02-14T23:47:26.323Z,69.69
2019-02-14T23:49:58.586Z,69.54
2019-02-14T23:52:31.592Z,69.72
2019-02-14T23:55:03.751Z,69.68
2019-02-14T23:57:35.986Z,69.56
